Terminal Aerodrome Forecast
Issued by NWS Brownsville, TX

Current Version | Previous Version | Text Only | Print | Product List | Glossary On
Versions: 1 2 3 4 5 6 7 8 9 10 11 12 13 14 15 16 17 18 19 20 21 22 23 24 25 26 27 28 29 30
000
FTUS44 KBRO 271735
TAFHRL
TAF
KHRL 271735Z 2718/2818 18022G27KT P6SM SCT025 BKN040
     FM280000 14015KT P6SM SCT035
     FM280400 15010KT P6SM BKN020
     FM281400 15015KT P6SM BKN025=

USA.gov is the U.S. government's official web portal to all federal, state and local government web resources and services.